Time;durP1;ratioP1;P1;durP2;ratioP2;P2;SDS_P1;SDS_P2;PMS_P1;PMS_P2;Temp;Humidity;BMP_temperature;BMP_pressure;BME280_temperature;BME280_humidity;BME280_pressure;Samples;Min_cycle;Max_cycle;Signal;HPM_P1;HPM_P2
2023/11/08 00:00:08;;;;;;;7.75;4.50;;;12.20;61.60;;;;;;338803;29;969;-57
2023/11/08 00:00:18;;;;;;;8.75;4.50;;;12.20;61.60;;;;;;338685;29;1977;-57
2023/11/08 00:00:29;;;;;;;8.85;4.68;;;12.20;61.60;;;;;;338815;29;1093;-57
2023/11/08 00:00:40;;;;;;;9.75;4.63;;;12.20;61.50;;;;;;338737;29;1424;-58
2023/11/08 00:00:51;;;;;;;11.40;4.90;;;12.20;61.50;;;;;;338853;29;1025;-58
2023/11/08 00:01:02;;;;;;;12.73;5.03;;;12.20;61.40;;;;;;338736;29;1049;-58
2023/11/08 00:01:12;;;;;;;10.77;4.87;;;12.20;61.40;;;;;;338830;29;1143;-59
2023/11/08 00:01:23;;;;;;;9.38;4.80;;;12.20;61.40;;;;;;338824;29;916;-57
2023/11/08 00:01:34;;;;;;;8.02;4.60;;;12.20;61.30;;;;;;338799;29;1036;-57
2023/11/08 00:01:44;;;;;;;8.93;4.60;;;12.20;61.30;;;;;;338769;29;933;-57
2023/11/08 00:01:55;;;;;;;8.85;4.30;;;12.20;61.20;;;;;;338848;29;1028;-57
2023/11/08 00:02:07;;;;;;;8.27;4.17;;;12.20;61.10;;;;;;338880;29;961;-57
2023/11/08 00:02:19;;;;;;;8.40;4.22;;;12.20;61.10;;;;;;338858;29;859;-57
2023/11/08 00:02:30;;;;;;;8.32;4.43;;;12.20;61.10;;;;;;338722;29;1254;-58
2023/11/08 00:02:41;;;;;;;7.93;4.40;;;12.20;61.00;;;;;;338839;29;1417;-57
2023/11/08 00:02:51;;;;;;;8.70;4.57;;;12.20;61.00;;;;;;338855;29;884;-56
2023/11/08 00:03:02;;;;;;;9.20;4.25;;;12.20;61.00;;;;;;338850;29;1267;-57
2023/11/08 00:03:15;;;;;;;9.48;4.28;;;12.20;61.00;;;;;;338758;29;1100;-57
2023/11/08 00:03:25;;;;;;;7.75;4.10;;;12.20;61.00;;;;;;338833;29;988;-57
2023/11/08 00:03:36;;;;;;;8.85;4.45;;;12.20;61.00;;;;;;338803;29;1008;-57
2023/11/08 00:03:47;;;;;;;8.80;4.50;;;12.20;61.00;;;;;;338820;29;909;-57
2023/11/08 00:03:57;;;;;;;9.27;4.37;;;12.20;61.00;;;;;;338788;29;964;-57
2023/11/08 00:04:08;;;;;;;8.25;4.22;;;12.20;61.10;;;;;;338804;29;1144;-57
2023/11/08 00:04:19;;;;;;;9.80;4.60;;;12.20;61.10;;;;;;338884;29;1509;-56
2023/11/08 00:04:31;;;;;;;11.27;4.93;;;12.20;61.30;;;;;;338842;29;1067;-57
2023/11/08 00:04:42;;;;;;;11.25;5.25;;;12.20;61.50;;;;;;338781;29;880;-57
2023/11/08 00:04:52;;;;;;;10.20;5.60;;;12.20;61.50;;;;;;338771;29;1408;-57
2023/11/08 00:05:04;;;;;;;10.93;6.07;;;12.20;61.50;;;;;;338794;29;1156;-57
2023/11/08 00:05:15;;;;;;;11.68;6.10;;;12.20;61.50;;;;;;338898;29;850;-58
2023/11/08 00:05:26;;;;;;;11.80;5.88;;;12.20;61.40;;;;;;338787;29;1020;-57
2023/11/08 00:05:36;;;;;;;10.75;5.85;;;12.20;61.40;;;;;;338760;29;1167;-57
2023/11/08 00:05:47;;;;;;;10.90;6.05;;;12.20;61.30;;;;;;338842;29;865;-58
2023/11/08 00:05:58;;;;;;;10.63;6.00;;;12.20;61.30;;;;;;338816;29;1033;-56
2023/11/08 00:06:09;;;;;;;9.35;6.00;;;12.20;61.20;;;;;;338806;29;1240;-57
2023/11/08 00:06:20;;;;;;;9.52;6.07;;;12.20;61.20;;;;;;338863;29;952;-58
2023/11/08 00:06:32;;;;;;;9.90;6.20;;;12.20;61.20;;;;;;338836;29;874;-57
2023/11/08 00:06:43;;;;;;;10.70;6.40;;;12.20;61.30;;;;;;338838;29;1842;-56
2023/11/08 00:06:54;;;;;;;11.00;6.28;;;12.20;61.40;;;;;;338739;29;972;-58
2023/11/08 00:07:05;;;;;;;10.90;5.97;;;12.20;61.50;;;;;;338888;29;814;-57
2023/11/08 00:07:15;;;;;;;11.02;5.93;;;12.20;61.60;;;;;;338881;29;818;-58
2023/11/08 00:07:26;;;;;;;11.27;6.10;;;12.20;61.60;;;;;;338777;29;1060;-57
2023/11/08 00:07:37;;;;;;;13.10;6.40;;;12.20;61.60;;;;;;338754;29;1004;-57
2023/11/08 00:07:48;;;;;;;12.40;6.20;;;12.20;61.60;;;;;;338826;29;835;-57
2023/11/08 00:07:58;;;;;;;12.60;6.40;;;12.20;61.60;;;;;;338790;29;1615;-57
2023/11/08 00:08:09;;;;;;;11.15;6.45;;;12.20;61.60;;;;;;338808;29;1044;-57
2023/11/08 00:08:20;;;;;;;11.02;6.68;;;12.20;61.50;;;;;;338840;29;1108;-58
2023/11/08 00:08:31;;;;;;;10.45;6.50;;;12.20;61.50;;;;;;338788;29;1032;-57
2023/11/08 00:08:41;;;;;;;11.13;6.37;;;12.20;61.40;;;;;;338821;29;1319;-57
2023/11/08 00:08:52;;;;;;;11.83;6.20;;;12.20;61.40;;;;;;338851;29;815;-57
2023/11/08 00:09:03;;;;;;;11.50;6.20;;;12.10;61.40;;;;;;338823;29;1210;-57
2023/11/08 00:09:14;;;;;;;12.00;6.30;;;12.10;61.40;;;;;;338780;29;981;-56
2023/11/08 00:09:25;;;;;;;11.60;6.18;;;12.10;61.60;;;;;;338827;29;1100;-57
2023/11/08 00:09:35;;;;;;;12.40;6.20;;;12.20;61.60;;;;;;338901;29;1012;-58
2023/11/08 00:09:46;;;;;;;12.45;6.18;;;12.10;61.60;;;;;;338913;29;933;-58
2023/11/08 00:09:57;;;;;;;12.80;6.33;;;12.10;61.70;;;;;;338868;29;822;-58
2023/11/08 00:10:12;;;;;;;11.35;6.13;;;12.10;61.70;;;;;;338742;29;1040;-58
2023/11/08 00:10:23;;;;;;;10.38;6.05;;;12.10;61.60;;;;;;338851;29;908;-57
2023/11/08 00:10:35;;;;;;;12.77;6.38;;;12.10;61.60;;;;;;338823;29;1183;-57
2023/11/08 00:10:46;;;;;;;12.82;6.10;;;12.20;61.60;;;;;;338848;29;1000;-57
2023/11/08 00:10:56;;;;;;;12.68;5.97;;;12.10;61.60;;;;;;338739;29;1148;-58
2023/11/08 00:11:07;;;;;;;10.98;5.90;;;12.10;61.60;;;;;;338811;29;1219;-58
2023/11/08 00:11:23;;;;;;;10.90;6.20;;;12.10;61.60;;;;;;338863;29;1047;-58
2023/11/08 00:11:34;;;;;;;10.02;5.93;;;12.10;61.60;;;;;;338752;29;889;-57
2023/11/08 00:11:44;;;;;;;10.17;5.97;;;12.10;61.60;;;;;;338825;29;985;-57
2023/11/08 00:11:55;;;;;;;10.45;6.22;;;12.10;61.70;;;;;;338857;29;811;-58
2023/11/08 00:12:07;;;;;;;11.75;6.60;;;12.10;61.80;;;;;;338846;29;924;-58
2023/11/08 00:12:19;;;;;;;11.90;6.38;;;12.20;61.90;;;;;;338779;29;1004;-57
2023/11/08 00:12:30;;;;;;;10.50;6.10;;;12.10;61.90;;;;;;338852;29;1096;-57
2023/11/08 00:12:41;;;;;;;9.65;5.63;;;12.10;61.80;;;;;;338867;29;842;-57
2023/11/08 00:12:52;;;;;;;9.43;5.80;;;12.20;61.80;;;;;;338747;29;1186;-57
2023/11/08 00:13:02;;;;;;;10.63;5.90;;;12.20;61.80;;;;;;338795;29;977;-57
2023/11/08 00:13:19;;;;;;;11.67;6.23;;;12.20;61.80;;;;;;338859;29;817;-57
2023/11/08 00:13:29;;;;;;;11.80;6.45;;;12.20;61.70;;;;;;338757;29;1079;-57
2023/11/08 00:13:40;;;;;;;10.70;6.10;;;12.20;61.70;;;;;;338819;29;1092;-57
2023/11/08 00:13:52;;;;;;;11.10;6.10;;;12.20;61.70;;;;;;338821;29;834;-57
2023/11/08 00:14:03;;;;;;;10.05;5.63;;;12.20;61.80;;;;;;338858;29;846;-57
2023/11/08 00:14:14;;;;;;;9.32;5.75;;;12.20;61.80;;;;;;338751;29;1028;-57
2023/11/08 00:14:24;;;;;;;8.23;5.65;;;12.20;61.80;;;;;;338820;29;1166;-57
2023/11/08 00:14:35;;;;;;;8.05;5.40;;;12.20;61.80;;;;;;338827;29;846;-57
2023/11/08 00:14:46;;;;;;;8.93;5.35;;;12.20;61.80;;;;;;338757;29;1186;-57
2023/11/08 00:14:57;;;;;;;8.67;5.27;;;12.20;61.80;;;;;;338758;29;1016;-57
2023/11/08 00:15:08;;;;;;;9.43;5.57;;;12.10;61.80;;;;;;338839;29;1099;-56
2023/11/08 00:15:19;;;;;;;9.68;5.86;;;12.20;61.80;;;;;;338785;29;1127;-57
2023/11/08 00:15:29;;;;;;;10.93;5.90;;;12.10;61.90;;;;;;338867;29;1190;-57
2023/11/08 00:15:40;;;;;;;9.50;5.35;;;12.20;61.90;;;;;;338811;29;1096;-57
2023/11/08 00:15:51;;;;;;;10.25;5.22;;;12.10;62.00;;;;;;338807;29;985;-56
2023/11/08 00:16:02;;;;;;;10.02;5.22;;;12.10;62.00;;;;;;338810;29;1048;-57
2023/11/08 00:16:13;;;;;;;13.38;5.70;;;12.10;62.00;;;;;;338914;29;925;-57
2023/11/08 00:16:24;;;;;;;12.52;5.53;;;12.10;61.90;;;;;;338787;29;1175;-57
2023/11/08 00:16:36;;;;;;;11.27;5.43;;;12.20;61.90;;;;;;338860;29;808;-58
2023/11/08 00:16:47;;;;;;;8.85;5.25;;;12.10;61.80;;;;;;338776;29;1047;-57
2023/11/08 00:16:58;;;;;;;11.10;5.57;;;12.10;61.70;;;;;;338838;29;969;-57
2023/11/08 00:17:09;;;;;;;11.65;5.75;;;12.10;61.70;;;;;;338847;29;937;-58
2023/11/08 00:17:19;;;;;;;11.68;5.50;;;12.10;61.70;;;;;;338866;29;1744;-57
2023/11/08 00:17:30;;;;;;;9.95;5.40;;;12.10;61.70;;;;;;338783;29;993;-57
2023/11/08 00:17:41;;;;;;;10.57;5.43;;;12.10;61.80;;;;;;338757;29;981;-58
2023/11/08 00:17:52;;;;;;;10.00;5.53;;;12.10;61.80;;;;;;338848;29;1044;-58
2023/11/08 00:18:02;;;;;;;12.05;5.47;;;12.10;61.80;;;;;;338873;29;889;-56
2023/11/08 00:18:13;;;;;;;11.85;5.30;;;12.10;61.80;;;;;;338888;29;866;-56
2023/11/08 00:18:24;;;;;;;12.43;5.40;;;12.10;61.80;;;;;;338815;29;1206;-59
2023/11/08 00:18:35;;;;;;;13.43;5.90;;;12.10;61.80;;;;;;338762;29;1020;-57
2023/11/08 00:18:45;;;;;;;13.00;6.15;;;12.10;61.80;;;;;;338810;29;1039;-57
2023/11/08 00:18:56;;;;;;;12.25;6.00;;;12.10;61.90;;;;;;338879;29;931;-57
2023/11/08 00:19:07;;;;;;;10.18;5.53;;;12.10;61.90;;;;;;338801;29;1096;-57
2023/11/08 00:19:18;;;;;;;9.57;5.43;;;12.10;62.00;;;;;;338771;29;1107;-58
2023/11/08 00:19:30;;;;;;;9.20;5.57;;;12.10;62.10;;;;;;338735;29;1166;-57
2023/11/08 00:19:41;;;;;;;8.98;5.35;;;12.10;62.10;;;;;;338798;29;964;-58
2023/11/08 00:19:52;;;;;;;9.60;5.52;;;12.10;62.10;;;;;;338825;29;952;-57
2023/11/08 00:20:08;;;;;;;10.15;5.38;;;12.10;62.10;;;;;;338828;29;857;-57
2023/11/08 00:20:18;;;;;;;11.77;5.35;;;12.10;62.10;;;;;;338739;29;1037;-58
2023/11/08 00:20:29;;;;;;;11.27;5.20;;;12.10;62.10;;;;;;338838;29;885;-58
2023/11/08 00:20:40;;;;;;;10.13;5.05;;;12.10;62.20;;;;;;338829;29;786;-57
2023/11/08 00:20:51;;;;;;;9.40;4.90;;;12.10;62.20;;;;;;338813;29;2009;-58
2023/11/08 00:21:01;;;;;;;9.90;5.28;;;12.10;62.10;;;;;;338821;29;853;-58
2023/11/08 00:21:12;;;;;;;9.93;5.20;;;12.10;62.10;;;;;;338745;29;1539;-57
2023/11/08 00:21:24;;;;;;;9.23;5.15;;;12.10;62.00;;;;;;338765;29;1107;-57
2023/11/08 00:21:35;;;;;;;8.98;4.97;;;12.10;62.00;;;;;;338862;29;896;-57
2023/11/08 00:21:46;;;;;;;9.48;5.22;;;12.10;62.00;;;;;;338833;29;1856;-57
2023/11/08 00:21:58;;;;;;;9.75;5.28;;;12.10;61.90;;;;;;338787;29;893;-56
2023/11/08 00:22:09;;;;;;;10.65;5.25;;;12.10;61.90;;;;;;338749;29;983;-58
2023/11/08 00:22:20;;;;;;;10.10;5.10;;;12.10;62.00;;;;;;338840;29;794;-57
2023/11/08 00:22:33;;;;;;;10.00;5.22;;;12.10;62.00;;;;;;338807;29;1047;-57
2023/11/08 00:22:44;;;;;;;10.90;5.30;;;12.10;62.10;;;;;;338810;29;972;-57
2023/11/08 00:22:55;;;;;;;10.73;5.50;;;12.10;62.20;;;;;;338803;29;1571;-58
2023/11/08 00:23:06;;;;;;;9.75;5.65;;;12.10;62.30;;;;;;338844;29;941;-57
2023/11/08 00:23:17;;;;;;;10.23;5.60;;;12.10;62.30;;;;;;338828;29;926;-57
2023/11/08 00:23:28;;;;;;;10.37;5.37;;;12.10;62.30;;;;;;338838;29;892;-57
2023/11/08 00:23:42;;;;;;;10.07;5.00;;;12.10;62.30;;;;;;338819;29;1068;-58
2023/11/08 00:23:53;;;;;;;9.60;4.88;;;12.20;62.30;;;;;;338802;29;1131;-56
2023/11/08 00:24:04;;;;;;;9.48;5.13;;;12.20;62.30;;;;;;338753;29;938;-58
2023/11/08 00:24:15;;;;;;;10.43;5.20;;;12.10;62.30;;;;;;338790;29;1111;-57
2023/11/08 00:24:29;;;;;;;9.50;5.03;;;12.10;62.20;;;;;;338829;29;1003;-56
2023/11/08 00:24:39;;;;;;;10.90;5.22;;;12.10;62.20;;;;;;338834;29;1032;-58
2023/11/08 00:24:50;;;;;;;9.77;5.00;;;12.10;62.20;;;;;;338855;29;838;-57
2023/11/08 00:25:01;;;;;;;8.20;4.73;;;12.10;62.20;;;;;;338785;29;906;-57
2023/11/08 00:25:12;;;;;;;7.95;4.60;;;12.10;62.20;;;;;;338779;29;1178;-57
2023/11/08 00:25:23;;;;;;;8.32;4.68;;;12.10;62.10;;;;;;338824;29;968;-58
2023/11/08 00:25:34;;;;;;;9.52;4.53;;;12.10;62.00;;;;;;338825;29;926;-57
2023/11/08 00:25:44;;;;;;;9.63;4.53;;;12.10;62.00;;;;;;338810;29;870;-56
2023/11/08 00:25:55;;;;;;;9.18;4.72;;;12.20;61.90;;;;;;338743;29;912;-58
2023/11/08 00:26:06;;;;;;;10.30;4.80;;;12.10;61.90;;;;;;338808;29;961;-57
2023/11/08 00:26:17;;;;;;;11.13;4.97;;;12.10;61.90;;;;;;338813;29;1104;-58
2023/11/08 00:26:28;;;;;;;11.07;4.90;;;12.10;61.90;;;;;;338775;29;1056;-57
2023/11/08 00:26:39;;;;;;;8.98;4.65;;;12.10;62.00;;;;;;338854;29;956;-57
2023/11/08 00:26:50;;;;;;;8.52;4.75;;;12.20;62.20;;;;;;338856;29;977;-57
2023/11/08 00:27:01;;;;;;;8.57;4.90;;;12.10;62.30;;;;;;338748;29;915;-58
2023/11/08 00:27:11;;;;;;;10.30;5.22;;;12.10;62.40;;;;;;338877;29;1015;-58
2023/11/08 00:27:22;;;;;;;10.57;5.25;;;12.10;62.40;;;;;;338784;29;1100;-57
2023/11/08 00:27:33;;;;;;;10.80;5.05;;;12.10;62.30;;;;;;338740;29;1024;-57
2023/11/08 00:27:44;;;;;;;9.40;4.82;;;12.10;62.20;;;;;;338816;29;908;-57
2023/11/08 00:27:54;;;;;;;9.57;4.80;;;12.10;62.20;;;;;;338809;29;949;-57
2023/11/08 00:28:05;;;;;;;9.38;4.78;;;12.10;62.10;;;;;;338727;29;1108;-57
2023/11/08 00:28:16;;;;;;;9.88;4.70;;;12.10;62.10;;;;;;338804;29;913;-58
2023/11/08 00:28:26;;;;;;;9.63;4.65;;;12.10;62.20;;;;;;338758;29;1256;-57
2023/11/08 00:28:37;;;;;;;10.13;4.80;;;12.10;62.20;;;;;;338813;29;922;-57
2023/11/08 00:28:48;;;;;;;9.23;4.70;;;12.10;62.10;;;;;;338793;29;992;-57
2023/11/08 00:28:58;;;;;;;9.38;4.60;;;12.10;62.10;;;;;;338832;29;814;-57
2023/11/08 00:29:09;;;;;;;8.02;4.35;;;12.00;62.10;;;;;;338778;29;994;-57
2023/11/08 00:29:21;;;;;;;8.43;4.50;;;12.10;62.10;;;;;;338776;29;1008;-57
2023/11/08 00:29:32;;;;;;;9.02;4.75;;;12.10;62.10;;;;;;338791;29;1150;-57
2023/11/08 00:29:43;;;;;;;10.13;4.88;;;12.00;62.10;;;;;;338767;29;822;-57
2023/11/08 00:29:54;;;;;;;9.80;4.83;;;12.10;62.10;;;;;;338836;29;1104;-57
2023/11/08 00:30:05;;;;;;;9.35;4.97;;;12.00;62.20;;;;;;338742;29;1662;-56
2023/11/08 00:30:16;;;;;;;9.02;4.82;;;12.00;62.10;;;;;;338772;29;1127;-56
2023/11/08 00:30:27;;;;;;;8.65;4.90;;;12.00;62.10;;;;;;338813;29;1529;-57
2023/11/08 00:30:38;;;;;;;8.33;5.10;;;12.10;62.20;;;;;;338768;29;1024;-57
2023/11/08 00:30:49;;;;;;;9.50;5.45;;;12.10;62.20;;;;;;338778;29;987;-57
2023/11/08 00:31:01;;;;;;;10.77;5.82;;;12.00;62.20;;;;;;338833;29;852;-57
2023/11/08 00:31:12;;;;;;;9.90;6.40;;;12.00;62.20;;;;;;338839;29;965;-57
2023/11/08 00:31:24;;;;;;;9.57;6.47;;;12.00;62.20;;;;;;338794;29;1006;-57
2023/11/08 00:31:34;;;;;;;10.48;6.25;;;12.00;62.30;;;;;;338826;29;942;-57
2023/11/08 00:31:45;;;;;;;12.25;6.07;;;12.00;62.20;;;;;;338847;29;971;-57
2023/11/08 00:31:56;;;;;;;11.30;6.10;;;12.00;62.20;;;;;;338711;29;1096;-57
2023/11/08 00:32:06;;;;;;;12.48;6.05;;;12.00;62.20;;;;;;338855;29;861;-57
2023/11/08 00:32:21;;;;;;;11.50;5.87;;;12.00;62.20;;;;;;338773;29;1119;-57
2023/11/08 00:32:32;;;;;;;10.05;5.18;;;12.00;62.10;;;;;;338741;29;1039;-57
2023/11/08 00:32:42;;;;;;;8.75;5.35;;;12.00;62.10;;;;;;338780;29;1060;-57
2023/11/08 00:32:53;;;;;;;8.63;5.47;;;12.00;62.10;;;;;;338834;29;1134;-57
2023/11/08 00:33:04;;;;;;;9.23;5.23;;;12.00;62.10;;;;;;338758;29;980;-58
2023/11/08 00:33:16;;;;;;;9.15;5.13;;;12.00;62.20;;;;;;338828;29;881;-57
2023/11/08 00:33:27;;;;;;;10.02;5.38;;;12.00;62.20;;;;;;338830;29;1055;-58
2023/11/08 00:33:37;;;;;;;10.10;5.45;;;12.00;62.30;;;;;;338731;29;896;-58
2023/11/08 00:33:48;;;;;;;9.48;5.40;;;12.00;62.30;;;;;;338793;29;814;-57
2023/11/08 00:33:59;;;;;;;9.25;5.22;;;12.00;62.30;;;;;;338732;29;1566;-57
2023/11/08 00:34:13;;;;;;;10.40;5.17;;;12.00;62.30;;;;;;338736;29;1096;-57
2023/11/08 00:34:23;;;;;;;10.38;5.13;;;12.00;62.30;;;;;;338867;29;877;-58
2023/11/08 00:34:34;;;;;;;11.63;5.25;;;12.00;62.30;;;;;;338829;29;825;-57
2023/11/08 00:34:45;;;;;;;11.13;5.10;;;12.00;62.30;;;;;;338736;29;926;-58
2023/11/08 00:34:55;;;;;;;9.97;4.90;;;12.00;62.20;;;;;;338832;29;810;-57
2023/11/08 00:35:06;;;;;;;8.77;4.88;;;12.00;62.20;;;;;;338816;29;1070;-58
2023/11/08 00:35:18;;;;;;;9.85;5.18;;;12.00;62.20;;;;;;338828;29;944;-59
2023/11/08 00:35:29;;;;;;;10.38;5.40;;;12.00;62.30;;;;;;338796;29;1116;-59
2023/11/08 00:35:40;;;;;;;10.77;5.40;;;12.00;62.20;;;;;;338845;29;885;-57
2023/11/08 00:35:53;;;;;;;9.27;5.32;;;12.00;62.20;;;;;;338775;29;1160;-58
2023/11/08 00:36:05;;;;;;;9.60;5.55;;;12.00;62.20;;;;;;338750;29;996;-59
2023/11/08 00:36:17;;;;;;;9.32;5.50;;;12.00;62.20;;;;;;338870;29;891;-58
2023/11/08 00:36:27;;;;;;;10.05;5.50;;;11.90;62.10;;;;;;338855;29;916;-58
2023/11/08 00:36:38;;;;;;;10.37;5.33;;;12.00;62.10;;;;;;338773;29;981;-59
2023/11/08 00:36:49;;;;;;;10.27;5.67;;;12.00;62.20;;;;;;338795;29;965;-57
2023/11/08 00:37:00;;;;;;;11.38;5.90;;;11.90;62.20;;;;;;338851;29;869;-58
2023/11/08 00:37:12;;;;;;;12.47;6.03;;;12.00;62.20;;;;;;338896;29;980;-58
2023/11/08 00:37:24;;;;;;;10.80;5.60;;;12.00;62.30;;;;;;338723;29;1195;-56
2023/11/08 00:37:34;;;;;;;10.75;5.60;;;12.00;62.40;;;;;;338870;29;1044;-55
2023/11/08 00:37:45;;;;;;;9.70;5.50;;;12.00;62.50;;;;;;338838;29;880;-56
2023/11/08 00:37:56;;;;;;;9.75;5.35;;;12.00;62.60;;;;;;338762;29;1361;-57
2023/11/08 00:38:07;;;;;;;10.23;5.20;;;12.00;62.70;;;;;;338803;29;933;-58
2023/11/08 00:38:18;;;;;;;10.02;5.10;;;12.00;62.60;;;;;;338825;29;1244;-58
2023/11/08 00:38:29;;;;;;;10.65;5.40;;;12.00;62.60;;;;;;338802;29;1059;-57
2023/11/08 00:38:39;;;;;;;10.17;5.40;;;12.00;62.50;;;;;;338730;29;933;-57
2023/11/08 00:38:50;;;;;;;11.05;5.57;;;12.00;62.40;;;;;;338800;29;1882;-58
2023/11/08 00:39:01;;;;;;;9.57;5.40;;;12.00;62.50;;;;;;338844;29;1000;-57
2023/11/08 00:39:15;;;;;;;9.82;5.50;;;12.00;62.50;;;;;;338870;29;878;-57
2023/11/08 00:39:26;;;;;;;9.63;5.57;;;12.00;62.60;;;;;;338778;29;1047;-57
2023/11/08 00:39:36;;;;;;;10.57;5.78;;;12.00;62.60;;;;;;338785;29;830;-57
2023/11/08 00:39:48;;;;;;;11.63;5.87;;;12.00;62.50;;;;;;338792;29;1092;-57
2023/11/08 00:39:59;;;;;;;11.50;5.82;;;12.00;62.50;;;;;;338740;29;975;-57
2023/11/08 00:40:10;;;;;;;10.43;5.90;;;12.00;62.50;;;;;;338832;29;961;-56
2023/11/08 00:40:21;;;;;;;9.82;5.90;;;12.00;62.50;;;;;;338773;29;1958;-57
2023/11/08 00:40:32;;;;;;;11.32;5.90;;;12.00;62.50;;;;;;338721;29;1695;-57
2023/11/08 00:40:43;;;;;;;11.75;6.15;;;12.00;62.50;;;;;;338804;29;932;-61
2023/11/08 00:40:54;;;;;;;11.55;6.15;;;11.90;62.50;;;;;;338805;29;1080;-57
2023/11/08 00:41:05;;;;;;;10.85;6.07;;;11.90;62.50;;;;;;338786;29;1214;-56
2023/11/08 00:41:16;;;;;;;12.43;6.00;;;12.00;62.60;;;;;;338871;29;988;-58
2023/11/08 00:41:27;;;;;;;11.65;5.60;;;11.90;62.60;;;;;;338719;29;918;-58
2023/11/08 00:41:38;;;;;;;12.07;5.75;;;11.90;62.60;;;;;;338842;29;1023;-58
2023/11/08 00:41:49;;;;;;;11.93;5.95;;;11.90;62.60;;;;;;338859;29;807;-56
2023/11/08 00:41:59;;;;;;;12.40;6.07;;;11.90;62.60;;;;;;338856;29;933;-56
2023/11/08 00:42:10;;;;;;;11.95;5.97;;;11.90;62.70;;;;;;338777;29;1039;-57
2023/11/08 00:42:21;;;;;;;10.15;5.68;;;11.90;62.70;;;;;;338869;29;827;-58
2023/11/08 00:42:32;;;;;;;9.35;5.45;;;11.90;62.80;;;;;;338754;29;1329;-57
2023/11/08 00:42:42;;;;;;;8.73;5.37;;;11.90;62.80;;;;;;338826;29;972;-57
2023/11/08 00:42:53;;;;;;;10.00;5.32;;;11.90;62.90;;;;;;338762;29;1448;-58
2023/11/08 00:43:04;;;;;;;11.73;5.50;;;12.00;63.00;;;;;;338706;29;1100;-57
2023/11/08 00:43:15;;;;;;;12.45;5.70;;;11.90;63.00;;;;;;338832;29;972;-57
2023/11/08 00:43:25;;;;;;;10.93;5.63;;;11.90;63.00;;;;;;338864;29;833;-56
2023/11/08 00:43:36;;;;;;;8.63;5.63;;;12.00;62.90;;;;;;338621;29;1351;-58
2023/11/08 00:43:47;;;;;;;8.52;5.57;;;12.00;63.00;;;;;;338819;29;961;-59
2023/11/08 00:43:57;;;;;;;9.55;5.78;;;12.00;63.00;;;;;;338738;29;990;-58
2023/11/08 00:44:09;;;;;;;9.20;5.30;;;11.90;63.00;;;;;;338871;29;825;-57
2023/11/08 00:44:21;;;;;;;9.27;5.32;;;11.90;62.90;;;;;;338832;29;921;-57
2023/11/08 00:44:31;;;;;;;9.27;5.30;;;11.90;62.80;;;;;;338749;29;861;-57
2023/11/08 00:44:42;;;;;;;9.68;5.70;;;12.00;62.80;;;;;;338720;29;1059;-57
2023/11/08 00:44:53;;;;;;;9.70;5.57;;;12.00;62.70;;;;;;338793;29;1035;-57
2023/11/08 00:45:04;;;;;;;9.68;5.55;;;12.00;62.60;;;;;;338770;29;1139;-57
2023/11/08 00:45:16;;;;;;;9.68;5.55;;;12.00;62.60;;;;;;338816;29;980;-58
2023/11/08 00:45:27;;;;;;;10.23;6.07;;;11.90;62.60;;;;;;338709;29;1079;-57
2023/11/08 00:45:38;;;;;;;10.50;6.20;;;12.00;62.60;;;;;;338829;29;1076;-57
2023/11/08 00:45:49;;;;;;;10.02;6.13;;;12.00;62.80;;;;;;338849;29;779;-57
2023/11/08 00:46:02;;;;;;;10.94;5.90;;;12.00;62.90;;;;;;338799;29;976;-56
2023/11/08 00:46:12;;;;;;;11.57;5.88;;;12.00;63.00;;;;;;338753;29;884;-57
2023/11/08 00:46:24;;;;;;;12.00;5.72;;;12.00;63.20;;;;;;338778;29;1170;-57
2023/11/08 00:46:35;;;;;;;11.40;5.65;;;12.00;63.20;;;;;;338804;29;994;-56
2023/11/08 00:46:46;;;;;;;9.45;5.47;;;12.00;63.10;;;;;;338818;29;1048;-57
2023/11/08 00:46:56;;;;;;;11.00;5.77;;;12.00;63.00;;;;;;338777;29;1052;-57
2023/11/08 00:47:08;;;;;;;10.00;5.57;;;12.00;62.80;;;;;;338806;29;1836;-58
2023/11/08 00:47:19;;;;;;;10.93;5.50;;;12.00;62.70;;;;;;338808;29;1810;-57
2023/11/08 00:47:30;;;;;;;10.25;5.53;;;12.00;62.60;;;;;;338820;29;871;-56
2023/11/08 00:47:43;;;;;;;11.80;6.15;;;12.00;62.50;;;;;;338711;29;1016;-56
2023/11/08 00:47:54;;;;;;;11.15;6.32;;;12.00;62.50;;;;;;338853;29;1809;-57
2023/11/08 00:48:05;;;;;;;11.55;6.30;;;12.00;62.60;;;;;;338755;29;1138;-57
2023/11/08 00:48:16;;;;;;;11.38;6.43;;;12.00;62.60;;;;;;338841;29;1178;-57
2023/11/08 00:48:27;;;;;;;13.48;6.78;;;12.00;62.50;;;;;;338786;29;914;-57
2023/11/08 00:48:38;;;;;;;11.95;6.78;;;12.00;62.50;;;;;;338836;29;866;-57
2023/11/08 00:48:49;;;;;;;13.23;7.13;;;12.00;62.40;;;;;;338812;29;985;-57
2023/11/08 00:49:01;;;;;;;14.25;7.28;;;12.00;62.40;;;;;;338823;29;969;-57
2023/11/08 00:49:12;;;;;;;15.63;7.43;;;12.00;62.40;;;;;;338732;29;932;-57
2023/11/08 00:49:23;;;;;;;15.00;6.88;;;12.00;62.40;;;;;;338863;29;973;-57
2023/11/08 00:49:37;;;;;;;14.75;6.70;;;12.00;62.30;;;;;;338816;29;1158;-57
2023/11/08 00:49:48;;;;;;;14.50;6.70;;;12.00;62.20;;;;;;338723;29;886;-57
2023/11/08 00:49:59;;;;;;;14.25;7.05;;;11.90;62.10;;;;;;338775;29;1108;-57
2023/11/08 00:50:09;;;;;;;13.60;7.27;;;12.00;62.10;;;;;;338799;29;1167;-58
2023/11/08 00:50:20;;;;;;;12.00;7.00;;;11.90;62.10;;;;;;338765;29;1218;-57
2023/11/08 00:50:31;;;;;;;11.70;7.07;;;11.90;62.20;;;;;;338724;29;1044;-57
2023/11/08 00:50:42;;;;;;;11.85;7.07;;;12.00;62.20;;;;;;338779;29;973;-57
2023/11/08 00:50:54;;;;;;;11.27;7.13;;;12.00;62.20;;;;;;338808;29;850;-58
2023/11/08 00:51:05;;;;;;;11.50;6.90;;;11.90;62.10;;;;;;338850;29;966;-57
2023/11/08 00:51:16;;;;;;;12.93;7.13;;;11.90;62.10;;;;;;338727;29;1079;-56
2023/11/08 00:51:27;;;;;;;14.55;7.30;;;11.90;62.10;;;;;;338809;29;961;-57
2023/11/08 00:51:37;;;;;;;13.80;7.30;;;11.90;62.10;;;;;;338785;29;1071;-57
2023/11/08 00:51:48;;;;;;;13.70;6.97;;;11.90;62.10;;;;;;338791;29;1106;-57
2023/11/08 00:52:00;;;;;;;13.60;6.88;;;12.00;62.20;;;;;;338796;29;986;-57
2023/11/08 00:52:11;;;;;;;14.18;6.72;;;11.90;62.20;;;;;;338779;29;1033;-57
2023/11/08 00:52:23;;;;;;;13.43;6.95;;;11.90;62.20;;;;;;338815;29;1308;-57
2023/11/08 00:52:36;;;;;;;13.63;7.18;;;11.90;62.20;;;;;;338824;29;921;-57
2023/11/08 00:52:51;;;;;;;11.98;7.40;;;11.90;62.20;;;;;;338822;29;1000;-57
2023/11/08 00:53:03;;;;;;;11.90;7.50;;;11.90;62.10;;;;;;338768;29;996;-57
2023/11/08 00:53:15;;;;;;;12.73;7.35;;;11.90;62.10;;;;;;338822;29;1039;-57
2023/11/08 00:53:26;;;;;;;13.63;7.10;;;11.90;62.10;;;;;;338840;29;908;-57
2023/11/08 00:53:37;;;;;;;14.75;7.45;;;11.90;62.20;;;;;;338773;29;858;-57
2023/11/08 00:53:49;;;;;;;12.95;7.45;;;11.90;62.20;;;;;;338715;29;1603;-58
2023/11/08 00:54:00;;;;;;;12.65;7.68;;;11.90;62.20;;;;;;338848;29;854;-57
2023/11/08 00:54:11;;;;;;;11.82;7.50;;;11.90;62.30;;;;;;338833;29;1076;-57
2023/11/08 00:54:23;;;;;;;13.60;7.68;;;11.90;62.30;;;;;;338768;29;1183;-57
2023/11/08 00:54:33;;;;;;;12.80;7.35;;;11.80;62.30;;;;;;338701;29;1199;-57
2023/11/08 00:54:44;;;;;;;13.90;7.53;;;11.90;62.30;;;;;;338764;29;1084;-57
2023/11/08 00:54:55;;;;;;;12.60;7.50;;;11.90;62.30;;;;;;338795;29;1485;-57
2023/11/08 00:55:06;;;;;;;12.02;7.30;;;11.90;62.20;;;;;;338767;29;1092;-57
2023/11/08 00:55:17;;;;;;;12.13;7.30;;;11.90;62.20;;;;;;338795;29;945;-58
2023/11/08 00:55:28;;;;;;;13.27;7.22;;;11.90;62.20;;;;;;338801;29;935;-57
2023/11/08 00:55:38;;;;;;;12.68;7.30;;;11.90;62.10;;;;;;338775;29;997;-57
2023/11/08 00:55:49;;;;;;;14.10;7.60;;;11.90;62.10;;;;;;338780;29;1408;-57
2023/11/08 00:56:00;;;;;;;14.17;7.87;;;11.90;62.10;;;;;;338887;29;889;-56
2023/11/08 00:56:12;;;;;;;14.73;7.85;;;11.90;62.10;;;;;;338772;29;1084;-57
2023/11/08 00:56:23;;;;;;;13.90;7.53;;;11.80;62.10;;;;;;338771;29;1099;-57
2023/11/08 00:56:34;;;;;;;13.43;7.77;;;11.80;62.10;;;;;;338786;29;1076;-57
2023/11/08 00:56:45;;;;;;;13.50;7.80;;;11.80;62.10;;;;;;338851;29;869;-57
2023/11/08 00:56:55;;;;;;;14.25;7.88;;;11.80;62.20;;;;;;338718;29;1032;-56
2023/11/08 00:57:08;;;;;;;16.33;7.85;;;11.80;62.20;;;;;;338792;29;1103;-57
2023/11/08 00:57:18;;;;;;;15.23;8.27;;;11.80;62.20;;;;;;338806;29;1055;-57
2023/11/08 00:57:30;;;;;;;13.15;8.15;;;11.80;62.30;;;;;;338800;29;870;-57
2023/11/08 00:57:41;;;;;;;12.35;7.63;;;11.90;62.30;;;;;;338811;29;860;-57
2023/11/08 00:57:52;;;;;;;13.20;7.43;;;11.80;62.30;;;;;;338856;29;904;-58
2023/11/08 00:58:03;;;;;;;13.73;7.40;;;11.80;62.40;;;;;;338716;29;915;-57
2023/11/08 00:58:13;;;;;;;13.43;7.90;;;11.80;62.40;;;;;;338754;29;1398;-57
2023/11/08 00:58:24;;;;;;;13.95;7.90;;;11.80;62.40;;;;;;338764;29;932;-57
2023/11/08 00:58:36;;;;;;;14.10;7.82;;;11.80;62.50;;;;;;338806;29;1032;-57
2023/11/08 00:58:47;;;;;;;15.25;8.23;;;11.80;62.50;;;;;;338820;29;1402;-57
2023/11/08 00:58:58;;;;;;;15.10;8.40;;;11.80;62.60;;;;;;338746;29;1048;-57
2023/11/08 00:59:09;;;;;;;15.75;8.18;;;11.80;62.60;;;;;;338746;29;1155;-57
2023/11/08 00:59:19;;;;;;;15.55;7.90;;;11.80;62.70;;;;;;338791;29;965;-57